Time;durP1;ratioP1;P1;durP2;ratioP2;P2;SDS_P1;SDS_P2;PMS_P1;PMS_P2;Temp;Humidity;BMP_temperature;BMP_pressure;BME280_temperature;BME280_humidity;BME280_pressure;Samples;Min_cycle;Max_cycle;Signal;HPM_P1;HPM_P2
2021/01/23 00:00:28;;;;;;;1999.90;999.90;;;;;;;;;;5041613;28;20040;-79
2021/01/23 00:02:53;;;;;;;1999.90;999.90;;;;;;;;;;5040330;28;20087;-80
2021/01/23 00:05:19;;;;;;;1999.90;999.90;;;;;;;;;;5042118;28;20070;-80
2021/01/23 00:07:44;;;;;;;1999.90;999.90;;;;;;;;;;5043391;28;20048;-80
2021/01/23 00:10:10;;;;;;;1999.90;999.90;;;;;;;;;;5039576;28;20066;-80
2021/01/23 00:12:36;;;;;;;1999.90;999.90;;;;;;;;;;5037206;28;20045;-80
2021/01/23 00:15:01;;;;;;;1999.90;999.90;;;;;;;;;;5039196;28;20097;-80
2021/01/23 00:17:26;;;;;;;1999.90;999.90;;;;;;;;;;5043754;28;20071;-79
2021/01/23 00:19:52;;;;;;;1999.90;999.90;;;;;;;;;;5037918;28;20028;-79
2021/01/23 00:22:17;;;;;;;1999.90;999.90;;;;;;;;;;5044036;28;20508;-79
2021/01/23 00:24:43;;;;;;;1999.90;999.90;;;;;;;;;;5039067;28;20022;-80
2021/01/23 00:27:08;;;;;;;1999.90;999.90;;;;;;;;;;5039344;28;20397;-81
2021/01/23 00:29:34;;;;;;;1999.90;999.90;;;;;;;;;;5042627;28;20029;-81
2021/01/23 00:31:59;;;;;;;1999.90;999.90;;;;;;;;;;5048679;28;20037;-80
2021/01/23 00:34:24;;;;;;;1999.90;999.90;;;;;;;;;;5048184;28;20096;-81
2021/01/23 00:36:50;;;;;;;1999.90;999.90;;;;;;;;;;5046559;28;20106;-80
2021/01/23 00:39:15;;;;;;;1999.90;999.90;;;;;;;;;;5048661;28;20037;-81
2021/01/23 00:41:41;;;;;;;1999.90;999.90;;;;;;;;;;5040303;28;20033;-81
2021/01/23 00:44:06;;;;;;;1999.90;999.90;;;;;;;;;;5045674;28;20025;-81
2021/01/23 00:46:32;;;;;;;1999.90;999.90;;;;;;;;;;5046994;28;20055;-81
2021/01/23 00:48:57;;;;;;;1999.90;999.90;;;;;;;;;;5030788;28;20021;-79
2021/01/23 00:51:22;;;;;;;1999.90;999.90;;;;;;;;;;5046680;28;20036;-80
2021/01/23 00:53:48;;;;;;;1999.90;999.90;;;;;;;;;;5031765;28;20020;-80
2021/01/23 00:56:14;;;;;;;1999.90;999.90;;;;;;;;;;5037552;28;20056;-79
2021/01/23 00:58:40;;;;;;;1999.90;999.90;;;;;;;;;;5029702;28;20405;-79
2021/01/23 01:01:06;;;;;;;1999.90;999.90;;;;;;;;;;5045634;28;20028;-80
2021/01/23 01:03:32;;;;;;;1999.90;999.90;;;;;;;;;;5045963;28;20041;-80
2021/01/23 01:06:02;;;;;;;1999.90;999.90;;;;;;;;;;5029517;28;20021;-80
2021/01/23 01:08:27;;;;;;;1999.90;999.90;;;;;;;;;;5047278;28;20025;-80
2021/01/23 01:10:53;;;;;;;1999.90;999.90;;;;;;;;;;5043119;28;20133;-81
2021/01/23 01:13:19;;;;;;;1999.90;999.90;;;;;;;;;;5044320;28;20163;-80
2021/01/23 01:15:44;;;;;;;1999.90;999.90;;;;;;;;;;5045062;28;20154;-80
2021/01/23 01:18:09;;;;;;;1999.90;999.90;;;;;;;;;;5042378;28;20033;-81
2021/01/23 01:20:35;;;;;;;1999.90;999.90;;;;;;;;;;5047157;28;20032;-80
2021/01/23 01:23:00;;;;;;;1999.90;999.90;;;;;;;;;;5042011;28;20154;-80
2021/01/23 01:25:26;;;;;;;1999.90;999.90;;;;;;;;;;5050264;28;20112;-81
2021/01/23 01:27:52;;;;;;;1999.90;999.90;;;;;;;;;;5047527;28;20025;-80
2021/01/23 01:30:17;;;;;;;1999.90;999.90;;;;;;;;;;5043750;28;20021;-80
2021/01/23 01:32:42;;;;;;;1999.90;999.90;;;;;;;;;;5043022;28;20358;-80
2021/01/23 01:35:08;;;;;;;1999.90;999.90;;;;;;;;;;5044610;28;20033;-80
2021/01/23 01:37:34;;;;;;;1999.90;999.90;;;;;;;;;;5044092;28;20025;-79
2021/01/23 01:39:59;;;;;;;1999.90;999.90;;;;;;;;;;5042629;28;20498;-80
2021/01/23 01:42:25;;;;;;;1999.90;999.90;;;;;;;;;;5042684;28;20027;-81
2021/01/23 01:44:50;;;;;;;1999.90;999.90;;;;;;;;;;5032455;28;20091;-80
2021/01/23 01:47:16;;;;;;;1999.90;999.90;;;;;;;;;;5035568;28;20033;-81
2021/01/23 01:49:42;;;;;;;1999.90;999.90;;;;;;;;;;5042962;28;20025;-80
2021/01/23 01:52:07;;;;;;;1999.90;999.90;;;;;;;;;;5047651;28;20078;-80
2021/01/23 01:54:33;;;;;;;1999.90;999.90;;;;;;;;;;5045839;28;20032;-80
2021/01/23 01:56:58;;;;;;;1999.90;999.90;;;;;;;;;;5048162;28;20107;-80
2021/01/23 01:59:24;;;;;;;1999.90;999.90;;;;;;;;;;5042764;28;20045;-80
2021/01/23 02:01:54;;;;;;;1999.90;999.90;;;;;;;;;;5044502;28;20268;-80
2021/01/23 02:04:19;;;;;;;1999.90;999.90;;;;;;;;;;5045823;28;20040;-79
2021/01/23 02:07:03;;;;;;;1999.90;999.90;;;;;;;;;;5046800;28;20013;-80
2021/01/23 02:09:32;;;;;;;1999.90;999.90;;;;;;;;;;5046590;28;20037;-80
2021/01/23 02:12:00;;;;;;;1999.90;999.90;;;;;;;;;;5036759;28;20017;-80
2021/01/23 02:14:39;;;;;;;1999.90;999.90;;;;;;;;;;5044115;28;20043;-80
2021/01/23 02:17:07;;;;;;;1999.90;999.90;;;;;;;;;;5038395;28;20405;-81
2021/01/23 02:19:33;;;;;;;1999.90;999.90;;;;;;;;;;5045458;28;20540;-80
2021/01/23 02:22:07;;;;;;;1999.90;999.90;;;;;;;;;;5042786;28;20041;-80
2021/01/23 02:24:33;;;;;;;1999.90;999.90;;;;;;;;;;5037911;28;20088;-80
2021/01/23 02:26:58;;;;;;;1999.90;999.90;;;;;;;;;;5045699;28;20021;-80
2021/01/23 02:29:43;;;;;;;1999.90;999.90;;;;;;;;;;5039490;28;20032;-80
2021/01/23 02:32:10;;;;;;;1999.90;999.90;;;;;;;;;;5044245;28;20091;-79
2021/01/23 02:34:36;;;;;;;1999.90;999.90;;;;;;;;;;5038943;28;20025;-80
2021/01/23 02:37:02;;;;;;;1999.90;999.90;;;;;;;;;;5046453;28;20041;-80
2021/01/23 02:39:29;;;;;;;1999.90;999.90;;;;;;;;;;5047806;28;20459;-80
2021/01/23 02:41:54;;;;;;;1999.90;999.90;;;;;;;;;;5045929;28;20033;-80
2021/01/23 02:44:20;;;;;;;1999.90;999.90;;;;;;;;;;5048391;28;20079;-81
2021/01/23 02:46:45;;;;;;;1999.90;999.90;;;;;;;;;;5043818;28;20501;-81
2021/01/23 02:49:11;;;;;;;1999.90;999.90;;;;;;;;;;5047388;28;20063;-81
2021/01/23 02:51:42;;;;;;;1999.90;999.90;;;;;;;;;;5048535;28;20037;-80
2021/01/23 02:54:28;;;;;;;1999.90;999.90;;;;;;;;;;5042138;28;20041;-80
2021/01/23 02:56:54;;;;;;;1999.90;999.90;;;;;;;;;;5059850;28;20044;-81
2021/01/23 02:59:20;;;;;;;1999.90;999.90;;;;;;;;;;5065304;28;20048;-79
2021/01/23 03:01:45;;;;;;;1999.90;999.90;;;;;;;;;;5063427;28;20624;-79
2021/01/23 03:04:12;;;;;;;1999.90;999.90;;;;;;;;;;5057801;28;20017;-79
2021/01/23 03:06:38;;;;;;;1999.90;999.90;;;;;;;;;;5057121;28;20029;-79
2021/01/23 03:09:23;;;;;;;1999.90;999.90;;;;;;;;;;5042313;28;20503;-80
2021/01/23 03:11:48;;;;;;;1999.90;999.90;;;;;;;;;;5037981;28;20160;-81
2021/01/23 03:14:14;;;;;;;1999.90;999.90;;;;;;;;;;5041845;28;20479;-80
2021/01/23 03:16:49;;;;;;;1999.90;999.90;;;;;;;;;;5040386;28;20036;-80
2021/01/23 03:19:15;;;;;;;1999.90;999.90;;;;;;;;;;5041651;28;20489;-80
2021/01/23 03:21:40;;;;;;;1999.90;999.90;;;;;;;;;;5044670;28;20021;-80
2021/01/23 03:24:06;;;;;;;1999.90;999.90;;;;;;;;;;5045802;28;20490;-81
2021/01/23 03:26:31;;;;;;;1999.90;999.90;;;;;;;;;;5044641;28;20021;-80
2021/01/23 03:28:57;;;;;;;1999.90;999.90;;;;;;;;;;5037418;28;20571;-80
2021/01/23 03:31:22;;;;;;;1999.90;999.90;;;;;;;;;;5044724;28;20025;-80
2021/01/23 03:33:48;;;;;;;1999.90;999.90;;;;;;;;;;5042282;28;20040;-80
2021/01/23 03:36:13;;;;;;;1999.90;999.90;;;;;;;;;;5046906;28;20024;-80
2021/01/23 03:38:38;;;;;;;1999.90;999.90;;;;;;;;;;5046228;28;20043;-80
2021/01/23 03:41:04;;;;;;;1999.90;999.90;;;;;;;;;;5044117;28;20553;-80
2021/01/23 03:43:29;;;;;;;1999.90;999.90;;;;;;;;;;5035667;28;20500;-80
2021/01/23 03:45:55;;;;;;;1999.90;999.90;;;;;;;;;;5042242;28;20074;-80
2021/01/23 03:48:20;;;;;;;1999.90;999.90;;;;;;;;;;5044024;28;20033;-80
2021/01/23 03:50:46;;;;;;;1999.90;999.90;;;;;;;;;;5039464;28;20035;-80
2021/01/23 03:53:11;;;;;;;1999.90;999.90;;;;;;;;;;5046247;28;20039;-80
2021/01/23 03:55:37;;;;;;;1999.90;999.90;;;;;;;;;;5042888;28;20424;-79
2021/01/23 03:58:02;;;;;;;1999.90;999.90;;;;;;;;;;5039681;28;20049;-80
2021/01/23 04:00:28;;;;;;;1999.90;999.90;;;;;;;;;;5039092;28;20080;-80
2021/01/23 04:02:53;;;;;;;1999.90;999.90;;;;;;;;;;5042509;28;20025;-80
2021/01/23 04:05:19;;;;;;;1999.90;999.90;;;;;;;;;;5040876;28;20584;-80
2021/01/23 04:07:45;;;;;;;1999.90;999.90;;;;;;;;;;5044794;28;20103;-80
2021/01/23 04:10:11;;;;;;;1999.90;999.90;;;;;;;;;;5028365;28;20048;-80
2021/01/23 04:12:36;;;;;;;1999.90;999.90;;;;;;;;;;5046499;28;20029;-80
2021/01/23 04:15:02;;;;;;;1999.90;999.90;;;;;;;;;;5042234;28;20029;-80
2021/01/23 04:17:27;;;;;;;1999.90;999.90;;;;;;;;;;5046923;28;20033;-79
2021/01/23 04:19:54;;;;;;;1999.90;999.90;;;;;;;;;;5038296;28;20116;-80
2021/01/23 04:22:19;;;;;;;1999.90;999.90;;;;;;;;;;5039061;28;20540;-80
2021/01/23 04:24:45;;;;;;;1999.90;999.90;;;;;;;;;;5040395;28;20121;-80
2021/01/23 04:27:10;;;;;;;1999.90;999.90;;;;;;;;;;5037360;28;20538;-79
2021/01/23 04:29:36;;;;;;;1999.90;999.90;;;;;;;;;;5041466;28;20482;-79
2021/01/23 04:32:01;;;;;;;1999.90;999.90;;;;;;;;;;5041292;28;20579;-79
2021/01/23 04:34:27;;;;;;;1999.90;999.90;;;;;;;;;;5042591;28;20025;-80
2021/01/23 04:36:52;;;;;;;1999.90;999.90;;;;;;;;;;5033661;28;20037;-80
2021/01/23 04:39:17;;;;;;;1999.90;999.90;;;;;;;;;;5032087;28;20025;-80
2021/01/23 04:41:43;;;;;;;1999.90;999.90;;;;;;;;;;5037591;28;20026;-79
2021/01/23 04:44:08;;;;;;;1999.90;999.90;;;;;;;;;;5042181;28;20029;-79
2021/01/23 04:46:34;;;;;;;1999.90;999.90;;;;;;;;;;5041930;28;20030;-80
2021/01/23 04:49:00;;;;;;;1999.90;999.90;;;;;;;;;;5051827;28;20025;-80
2021/01/23 04:51:26;;;;;;;1999.90;999.90;;;;;;;;;;5058717;28;20036;-80
2021/01/23 04:53:52;;;;;;;1999.90;999.90;;;;;;;;;;5057593;28;20084;-80
2021/01/23 04:56:18;;;;;;;1999.90;999.90;;;;;;;;;;5053658;28;20485;-82
2021/01/23 04:58:43;;;;;;;1999.90;999.90;;;;;;;;;;5057021;28;20084;-80
2021/01/23 05:01:15;;;;;;;1999.90;999.90;;;;;;;;;;5058651;28;20028;-80
2021/01/23 05:04:00;;;;;;;1999.90;999.90;;;;;;;;;;5041406;28;20048;-79
2021/01/23 05:06:26;;;;;;;1999.90;999.90;;;;;;;;;;5061644;28;20079;-79
2021/01/23 05:08:52;;;;;;;1999.90;999.90;;;;;;;;;;5062621;28;20017;-80
2021/01/23 05:11:18;;;;;;;1999.90;999.90;;;;;;;;;;5061397;28;20062;-80
2021/01/23 05:13:44;;;;;;;1999.90;999.90;;;;;;;;;;5056484;28;20060;-80
2021/01/23 05:16:25;;;;;;;1999.90;999.90;;;;;;;;;;5060688;28;20044;-82
2021/01/23 05:18:54;;;;;;;1999.90;999.90;;;;;;;;;;5064376;28;20120;-79
2021/01/23 05:21:19;;;;;;;1999.90;999.90;;;;;;;;;;5066130;28;20028;-80
2021/01/23 05:23:45;;;;;;;1999.90;999.90;;;;;;;;;;5060335;28;20037;-80
2021/01/23 05:26:10;;;;;;;1999.90;999.90;;;;;;;;;;5062244;28;20047;-81
2021/01/23 05:28:38;;;;;;;1999.90;999.90;;;;;;;;;;5064554;28;20043;-80
2021/01/23 05:31:04;;;;;;;1999.90;999.90;;;;;;;;;;5060251;28;20052;-79
2021/01/23 05:33:31;;;;;;;1999.90;999.90;;;;;;;;;;5063693;28;20037;-80
2021/01/23 05:35:58;;;;;;;1999.90;999.90;;;;;;;;;;5065406;28;20024;-80
2021/01/23 05:38:30;;;;;;;1999.90;999.90;;;;;;;;;;5065781;28;20041;-79
2021/01/23 05:40:57;;;;;;;1999.90;999.90;;;;;;;;;;5055193;28;20116;-79
2021/01/23 05:43:33;;;;;;;1999.90;999.90;;;;;;;;;;5047037;28;20384;-79
2021/01/23 05:46:03;;;;;;;1999.90;999.90;;;;;;;;;;5045824;28;20121;-79
2021/01/23 05:48:29;;;;;;;1999.90;999.90;;;;;;;;;;5049648;28;20067;-80
2021/01/23 05:50:54;;;;;;;1999.90;999.90;;;;;;;;;;5043879;28;20061;-79
2021/01/23 05:53:19;;;;;;;1999.90;999.90;;;;;;;;;;5043426;28;20477;-79
2021/01/23 05:55:45;;;;;;;1999.90;999.90;;;;;;;;;;5042763;28;20574;-80
2021/01/23 05:58:10;;;;;;;1999.90;999.90;;;;;;;;;;5040875;28;20103;-80
2021/01/23 06:00:37;;;;;;;1999.90;999.90;;;;;;;;;;5038240;28;20068;-80
2021/01/23 06:03:02;;;;;;;1999.90;999.90;;;;;;;;;;5039891;28;20037;-79
2021/01/23 06:05:28;;;;;;;1999.90;999.90;;;;;;;;;;5044644;28;20032;-79
2021/01/23 06:07:54;;;;;;;1999.90;999.90;;;;;;;;;;5044254;28;20072;-80
2021/01/23 06:10:22;;;;;;;1999.90;999.90;;;;;;;;;;5027476;28;20017;-80
2021/01/23 06:12:48;;;;;;;1999.90;999.90;;;;;;;;;;5039944;28;20359;-80
2021/01/23 06:15:32;;;;;;;1999.90;999.90;;;;;;;;;;5044073;28;20162;-79
2021/01/23 06:17:58;;;;;;;1999.90;999.90;;;;;;;;;;5043645;28;20124;-79
2021/01/23 06:20:42;;;;;;;1999.90;999.90;;;;;;;;;;5048925;28;20096;-79
2021/01/23 06:23:11;;;;;;;1999.90;999.90;;;;;;;;;;5043427;28;20037;-79
2021/01/23 06:25:48;;;;;;;1999.90;999.90;;;;;;;;;;5048889;28;20016;-79
2021/01/23 06:28:14;;;;;;;1999.90;999.90;;;;;;;;;;5041623;28;20702;-79
2021/01/23 06:30:39;;;;;;;1999.90;999.90;;;;;;;;;;5046105;28;20025;-80
2021/01/23 06:33:24;;;;;;;1999.90;999.90;;;;;;;;;;5046774;28;20029;-79
2021/01/23 06:36:08;;;;;;;1999.90;999.90;;;;;;;;;;5044957;28;20064;-80
2021/01/23 06:38:34;;;;;;;1999.90;999.90;;;;;;;;;;5045722;28;20318;-80
2021/01/23 06:41:18;;;;;;;1999.90;999.90;;;;;;;;;;5046104;28;20056;-80
2021/01/23 06:44:02;;;;;;;1999.90;999.90;;;;;;;;;;5046317;28;20067;-80
2021/01/23 06:46:28;;;;;;;1999.90;999.90;;;;;;;;;;5044261;28;20040;-80
2021/01/23 06:49:02;;;;;;;1999.90;999.90;;;;;;;;;;5046057;28;20389;-80
2021/01/23 06:51:27;;;;;;;1999.90;999.90;;;;;;;;;;5047354;28;20480;-79
2021/01/23 06:54:29;;;;;;;1999.90;999.90;;;;;;;;;;5045922;28;20029;-79
2021/01/23 06:56:55;;;;;;;1999.90;999.90;;;;;;;;;;4949519;28;20038;-80
2021/01/23 06:59:24;;;;;;;1999.90;999.90;;;;;;;;;;5014880;28;20452;-80
2021/01/23 07:01:59;;;;;;;1999.90;999.90;;;;;;;;;;5040659;28;20029;-80
2021/01/23 07:04:25;;;;;;;1999.90;999.90;;;;;;;;;;5044541;28;20029;-80
2021/01/23 07:06:51;;;;;;;1999.90;999.90;;;;;;;;;;5043100;28;20052;-79
2021/01/23 07:09:17;;;;;;;1999.90;999.90;;;;;;;;;;5028976;28;20025;-79
2021/01/23 07:11:42;;;;;;;1999.90;999.90;;;;;;;;;;5045707;28;20024;-81
2021/01/23 07:14:08;;;;;;;1999.90;999.90;;;;;;;;;;5037943;28;20119;-80
2021/01/23 07:16:38;;;;;;;1999.90;999.90;;;;;;;;;;5027098;28;20021;-79
2021/01/23 07:19:04;;;;;;;1999.90;999.90;;;;;;;;;;5039362;28;20546;-79
2021/01/23 07:21:34;;;;;;;1999.90;999.90;;;;;;;;;;5041472;28;20021;-79
2021/01/23 07:24:00;;;;;;;1999.90;999.90;;;;;;;;;;5043654;28;20068;-79
2021/01/23 07:26:25;;;;;;;1999.90;999.90;;;;;;;;;;5042060;28;20052;-79
2021/01/23 07:28:57;;;;;;;1999.90;999.90;;;;;;;;;;5041144;28;20037;-79
2021/01/23 07:31:23;;;;;;;1999.90;999.90;;;;;;;;;;5040417;28;20056;-79
2021/01/23 07:33:48;;;;;;;1999.90;999.90;;;;;;;;;;5047944;28;20029;-81
2021/01/23 07:36:27;;;;;;;1999.90;999.90;;;;;;;;;;5025303;28;20087;-80
2021/01/23 07:38:52;;;;;;;1999.90;999.90;;;;;;;;;;5044165;28;20041;-80
2021/01/23 07:41:18;;;;;;;1999.90;999.90;;;;;;;;;;5048247;28;20066;-80
2021/01/23 07:43:44;;;;;;;1999.90;999.90;;;;;;;;;;5044952;28;20182;-79
2021/01/23 07:46:09;;;;;;;1999.90;999.90;;;;;;;;;;5029548;28;20245;-80
2021/01/23 07:48:44;;;;;;;1999.90;999.90;;;;;;;;;;5047445;28;20032;-81
2021/01/23 07:51:23;;;;;;;1999.90;999.90;;;;;;;;;;5046079;28;20104;-81
2021/01/23 07:54:08;;;;;;;1999.90;999.90;;;;;;;;;;5043177;28;20047;-81
2021/01/23 07:56:33;;;;;;;1999.90;999.90;;;;;;;;;;5039676;28;20065;-82
2021/01/23 07:58:59;;;;;;;1999.90;999.90;;;;;;;;;;5048971;28;20068;-81
2021/01/23 08:01:25;;;;;;;1999.90;999.90;;;;;;;;;;5039280;28;20036;-81
2021/01/23 08:03:50;;;;;;;1999.90;999.90;;;;;;;;;;5043328;28;20561;-81
2021/01/23 08:06:22;;;;;;;1999.90;999.90;;;;;;;;;;5041323;28;20044;-80
2021/01/23 08:08:49;;;;;;;1999.90;999.90;;;;;;;;;;5041164;28;20024;-81
2021/01/23 08:11:33;;;;;;;1999.90;999.90;;;;;;;;;;5041535;28;20140;-81
2021/01/23 08:14:09;;;;;;;1999.90;999.90;;;;;;;;;;5043208;28;20035;-82
2021/01/23 08:16:34;;;;;;;1999.90;999.90;;;;;;;;;;5045108;28;20029;-81
2021/01/23 08:19:06;;;;;;;1999.90;999.90;;;;;;;;;;5046247;28;20033;-81
2021/01/23 08:21:32;;;;;;;1999.90;999.90;;;;;;;;;;5042271;28;20031;-81
2021/01/23 08:23:57;;;;;;;1999.90;999.90;;;;;;;;;;5040185;28;20463;-80
2021/01/23 08:26:39;;;;;;;1999.90;999.90;;;;;;;;;;5042843;28;20097;-82
2021/01/23 08:29:04;;;;;;;1999.90;999.90;;;;;;;;;;5025921;28;20119;-80
2021/01/23 08:31:30;;;;;;;1999.90;999.90;;;;;;;;;;5038503;28;20078;-81
2021/01/23 08:33:56;;;;;;;1999.90;999.90;;;;;;;;;;5031548;28;20065;-80
2021/01/23 08:36:28;;;;;;;1999.90;999.90;;;;;;;;;;5049160;28;20029;-79
2021/01/23 08:39:02;;;;;;;1999.90;999.90;;;;;;;;;;5045812;28;20045;-80
2021/01/23 08:41:27;;;;;;;1999.90;999.90;;;;;;;;;;5049065;28;20112;-80
2021/01/23 08:43:53;;;;;;;1999.90;999.90;;;;;;;;;;5049582;28;20033;-81
2021/01/23 08:46:18;;;;;;;1999.90;999.90;;;;;;;;;;5041518;28;20059;-81
2021/01/23 08:48:43;;;;;;;1999.90;999.90;;;;;;;;;;5045315;28;20018;-82
2021/01/23 08:51:09;;;;;;;1999.90;999.90;;;;;;;;;;5033065;28;20397;-82
2021/01/23 08:53:34;;;;;;;1999.90;999.90;;;;;;;;;;5045401;28;20036;-82
2021/01/23 08:56:00;;;;;;;1999.90;999.90;;;;;;;;;;5047588;28;20033;-80
2021/01/23 08:58:25;;;;;;;1999.90;999.90;;;;;;;;;;5050255;28;20064;-81
2021/01/23 09:00:51;;;;;;;1999.90;999.90;;;;;;;;;;5033640;28;20040;-82
2021/01/23 09:03:17;;;;;;;1999.90;999.90;;;;;;;;;;5043118;28;20025;-81
2021/01/23 09:05:42;;;;;;;1999.90;999.90;;;;;;;;;;5028826;28;20029;-80
2021/01/23 09:08:07;;;;;;;1999.90;999.90;;;;;;;;;;5043088;28;20520;-79
2021/01/23 09:10:36;;;;;;;1999.90;999.90;;;;;;;;;;5041693;28;20481;-83
2021/01/23 09:13:02;;;;;;;1999.90;999.90;;;;;;;;;;5047927;28;20016;-82
2021/01/23 09:15:27;;;;;;;1999.90;999.90;;;;;;;;;;5045989;28;20112;-81
2021/01/23 09:17:53;;;;;;;1999.90;999.90;;;;;;;;;;5047929;28;20033;-81
2021/01/23 09:20:18;;;;;;;1999.90;999.90;;;;;;;;;;5032724;28;20033;-82
2021/01/23 09:22:44;;;;;;;1999.90;999.90;;;;;;;;;;5043933;28;20473;-81
2021/01/23 09:25:09;;;;;;;1999.90;999.90;;;;;;;;;;5044581;28;20034;-81
2021/01/23 09:27:35;;;;;;;1999.90;999.90;;;;;;;;;;5045694;28;20032;-81
2021/01/23 09:30:00;;;;;;;1999.90;999.90;;;;;;;;;;5025442;28;20056;-81
2021/01/23 09:32:26;;;;;;;1999.90;999.90;;;;;;;;;;5044340;28;20021;-81
2021/01/23 09:34:53;;;;;;;1999.90;999.90;;;;;;;;;;5036799;28;20064;-82
2021/01/23 09:37:19;;;;;;;1999.90;999.90;;;;;;;;;;5028667;28;20073;-81
2021/01/23 09:39:45;;;;;;;1999.90;999.90;;;;;;;;;;5050238;28;20041;-81
2021/01/23 09:42:10;;;;;;;1999.90;999.90;;;;;;;;;;5043132;28;20074;-81
2021/01/23 09:44:36;;;;;;;1999.90;999.90;;;;;;;;;;5042147;28;20021;-81
2021/01/23 09:47:01;;;;;;;1999.90;999.90;;;;;;;;;;5044986;28;20032;-81
2021/01/23 09:49:26;;;;;;;1999.90;999.90;;;;;;;;;;5047308;28;20025;-81
2021/01/23 09:51:52;;;;;;;1999.90;999.90;;;;;;;;;;5028857;28;20022;-81
2021/01/23 09:54:17;;;;;;;1999.90;999.90;;;;;;;;;;5042248;28;20037;-85
2021/01/23 09:56:43;;;;;;;1999.90;999.90;;;;;;;;;;5041944;28;20022;-89
2021/01/23 09:59:09;;;;;;;1999.90;999.90;;;;;;;;;;5023663;28;20111;-88
2021/01/23 10:01:34;;;;;;;1999.90;999.90;;;;;;;;;;5014741;28;20021;-88
2021/01/23 10:03:59;;;;;;;1999.90;999.90;;;;;;;;;;5053035;28;20132;-91
2021/01/23 10:06:26;;;;;;;1999.90;999.90;;;;;;;;;;5036442;28;20021;-91
2021/01/23 10:08:53;;;;;;;1999.90;999.90;;;;;;;;;;5050627;28;20416;-91
2021/01/23 10:11:20;;;;;;;1999.90;999.90;;;;;;;;;;5043142;28;20107;-92
2021/01/23 10:13:46;;;;;;;1999.90;999.90;;;;;;;;;;5045000;28;20064;-91
2021/01/23 10:16:14;;;;;;;1999.90;999.90;;;;;;;;;;5006136;28;20025;-80
2021/01/23 10:18:39;;;;;;;1999.90;999.90;;;;;;;;;;5043393;28;20633;-83
2021/01/23 10:21:05;;;;;;;1999.90;999.90;;;;;;;;;;5048485;28;20032;-83
2021/01/23 10:23:30;;;;;;;1999.90;999.90;;;;;;;;;;5030627;28;20029;-81
2021/01/23 10:25:56;;;;;;;1999.90;999.90;;;;;;;;;;5050314;28;20412;-81
2021/01/23 10:28:21;;;;;;;1999.90;999.90;;;;;;;;;;5043692;28;20056;-80
2021/01/23 10:30:47;;;;;;;1999.90;999.90;;;;;;;;;;5048830;28;20025;-80
2021/01/23 10:33:12;;;;;;;1999.90;999.90;;;;;;;;;;5044517;28;20036;-80
2021/01/23 10:35:37;;;;;;;1999.90;999.90;;;;;;;;;;5048466;28;20020;-88
2021/01/23 10:38:03;;;;;;;1999.90;999.90;;;;;;;;;;5049005;28;20124;-78
2021/01/23 10:40:28;;;;;;;1999.90;999.90;;;;;;;;;;5048893;28;20392;-81
2021/01/23 10:42:53;;;;;;;1999.90;999.90;;;;;;;;;;5045866;28;20033;-80
2021/01/23 10:45:19;;;;;;;1999.90;999.90;;;;;;;;;;5048554;28;20020;-81
2021/01/23 10:47:44;;;;;;;1999.90;999.90;;;;;;;;;;5045387;28;20163;-80
2021/01/23 10:50:10;;;;;;;1999.90;999.90;;;;;;;;;;5047393;28;20021;-81
2021/01/23 10:55:29;;;;;;;1999.90;999.90;;;;;;;;;;5767344;22;20045;-80
2021/01/23 10:57:55;;;;;;;1999.90;999.90;;;;;;;;;;5066500;28;20041;-80
2021/01/23 11:00:20;;;;;;;1999.90;999.90;;;;;;;;;;5063155;28;20032;-81
2021/01/23 11:02:46;;;;;;;1999.90;999.90;;;;;;;;;;5065471;28;20107;-81
2021/01/23 11:05:11;;;;;;;1999.90;999.90;;;;;;;;;;5041881;28;20024;-81
2021/01/23 11:07:37;;;;;;;1999.90;999.90;;;;;;;;;;5065447;28;20069;-80
2021/01/23 11:10:06;;;;;;;1999.90;999.90;;;;;;;;;;5062437;28;20021;-79
2021/01/23 11:12:31;;;;;;;1999.90;999.90;;;;;;;;;;5063401;28;20268;-78
2021/01/23 11:17:41;;;;;;;1999.90;999.90;;;;;;;;;;5020714;28;20515;-79
2021/01/23 11:20:07;;;;;;;1999.90;999.90;;;;;;;;;;5023381;28;20022;-78
2021/01/23 11:22:32;;;;;;;1999.90;999.90;;;;;;;;;;5020432;28;20113;-78
2021/01/23 11:27:33;;;;;;;1999.90;999.90;;;;;;;;;;5305480;23;20076;-77
2021/01/23 11:29:58;;;;;;;1999.90;999.90;;;;;;;;;;5048204;28;20055;-76
2021/01/23 11:32:24;;;;;;;1999.90;999.90;;;;;;;;;;5047859;28;20464;-77
2021/01/23 11:34:49;;;;;;;1999.90;999.90;;;;;;;;;;5048572;28;20033;-77
2021/01/23 11:37:15;;;;;;;1999.90;999.90;;;;;;;;;;5047972;28;20036;-77
2021/01/23 11:39:40;;;;;;;1999.90;999.90;;;;;;;;;;5043892;28;20041;-77
2021/01/23 11:42:05;;;;;;;1999.90;999.90;;;;;;;;;;5042734;28;20021;-78
2021/01/23 11:44:31;;;;;;;1999.90;999.90;;;;;;;;;;5039119;28;20187;-74
2021/01/23 11:46:56;;;;;;;1999.90;999.90;;;;;;;;;;5041406;28;20025;-77
2021/01/23 11:49:22;;;;;;;1999.90;999.90;;;;;;;;;;5046936;28;20106;-77
2021/01/23 11:51:47;;;;;;;1999.90;999.90;;;;;;;;;;5040864;28;20499;-78
2021/01/23 11:54:13;;;;;;;1999.90;999.90;;;;;;;;;;5036571;28;20037;-77
2021/01/23 11:56:38;;;;;;;1999.90;999.90;;;;;;;;;;5042133;28;20095;-76
2021/01/23 11:59:03;;;;;;;1999.90;999.90;;;;;;;;;;5045397;28;20040;-75
2021/01/23 12:01:29;;;;;;;1999.90;999.90;;;;;;;;;;5042877;28;20017;-76
2021/01/23 12:03:58;;;;;;;1999.90;999.90;;;;;;;;;;5042429;28;20503;-77
2021/01/23 12:06:23;;;;;;;1999.90;999.90;;;;;;;;;;5045790;28;20151;-77
2021/01/23 12:08:49;;;;;;;1999.90;999.90;;;;;;;;;;5044664;28;20179;-76
2021/01/23 12:11:14;;;;;;;1999.90;999.90;;;;;;;;;;5058058;28;20020;-78
2021/01/23 12:13:40;;;;;;;1999.90;999.90;;;;;;;;;;5039329;28;20471;-76
2021/01/23 12:16:05;;;;;;;1999.90;999.90;;;;;;;;;;5044810;28;20024;-76
2021/01/23 12:18:31;;;;;;;1999.90;999.90;;;;;;;;;;5045748;28;20077;-77
2021/01/23 12:20:56;;;;;;;1999.90;999.90;;;;;;;;;;5038321;28;20111;-76
2021/01/23 12:23:22;;;;;;;1999.90;999.90;;;;;;;;;;5045472;28;20029;-78
2021/01/23 12:25:47;;;;;;;1999.90;999.90;;;;;;;;;;5057426;28;20524;-77
2021/01/23 12:28:13;;;;;;;1999.90;999.90;;;;;;;;;;5040499;28;20067;-77
2021/01/23 12:30:41;;;;;;;1999.90;999.90;;;;;;;;;;5039314;28;20029;-77
2021/01/23 12:33:06;;;;;;;1999.90;999.90;;;;;;;;;;5037837;28;20102;-77
2021/01/23 12:35:33;;;;;;;1999.90;999.90;;;;;;;;;;5045587;28;20092;-76
2021/01/23 12:37:58;;;;;;;1999.90;999.90;;;;;;;;;;5044001;28;20082;-76
2021/01/23 12:40:24;;;;;;;1999.90;999.90;;;;;;;;;;5040712;28;20493;-77
2021/01/23 12:42:50;;;;;;;1999.90;999.90;;;;;;;;;;5037074;28;20045;-77
2021/01/23 12:45:15;;;;;;;1999.90;999.90;;;;;;;;;;5044124;28;20025;-76
2021/01/23 12:47:41;;;;;;;1999.90;999.90;;;;;;;;;;5035983;28;20026;-76
2021/01/23 12:50:08;;;;;;;1999.90;999.90;;;;;;;;;;5036307;28;20024;-86
2021/01/23 12:52:34;;;;;;;1999.90;999.90;;;;;;;;;;5036786;28;20033;-78
2021/01/23 12:54:59;;;;;;;1999.90;999.90;;;;;;;;;;5042072;28;20024;-78
2021/01/23 12:57:25;;;;;;;1999.90;999.90;;;;;;;;;;5041901;28;20068;-77
2021/01/23 12:59:50;;;;;;;1999.90;999.90;;;;;;;;;;5041143;28;20021;-78
2021/01/23 13:02:16;;;;;;;1999.90;999.90;;;;;;;;;;5038396;28;20056;-78
2021/01/23 13:04:42;;;;;;;1999.90;999.90;;;;;;;;;;5039673;28;20055;-78
2021/01/23 13:07:08;;;;;;;1999.90;999.90;;;;;;;;;;5046245;28;20500;-79
2021/01/23 13:09:34;;;;;;;1999.90;999.90;;;;;;;;;;5038376;28;20022;-79
2021/01/23 13:11:59;;;;;;;1999.90;999.90;;;;;;;;;;5043660;28;20034;-79
2021/01/23 13:14:25;;;;;;;1999.90;999.90;;;;;;;;;;5038815;28;20116;-79
2021/01/23 13:16:50;;;;;;;1999.90;999.90;;;;;;;;;;5040475;28;20044;-78
2021/01/23 13:19:16;;;;;;;1999.90;999.90;;;;;;;;;;5038972;28;20508;-78
2021/01/23 13:21:41;;;;;;;1999.90;999.90;;;;;;;;;;5042321;28;20029;-78
2021/01/23 13:24:07;;;;;;;1999.90;999.90;;;;;;;;;;5040381;28;20025;-78
2021/01/23 13:26:33;;;;;;;1999.90;999.90;;;;;;;;;;5043549;28;20537;-77
2021/01/23 13:28:58;;;;;;;1999.90;999.90;;;;;;;;;;5036783;28;20045;-78
2021/01/23 13:31:24;;;;;;;1999.90;999.90;;;;;;;;;;5043928;28;20378;-79
2021/01/23 13:33:53;;;;;;;1999.90;999.90;;;;;;;;;;5033912;28;20025;-76
2021/01/23 13:36:18;;;;;;;1999.90;999.90;;;;;;;;;;5040269;28;20029;-76
2021/01/23 13:38:43;;;;;;;1999.90;999.90;;;;;;;;;;5044297;28;20045;-76
2021/01/23 13:41:09;;;;;;;1999.90;999.90;;;;;;;;;;5058742;28;20033;-79
2021/01/23 13:43:34;;;;;;;1999.90;999.90;;;;;;;;;;5042200;28;20029;-78
2021/01/23 13:46:00;;;;;;;1999.90;999.90;;;;;;;;;;5043240;28;20029;-78
2021/01/23 13:48:25;;;;;;;1999.90;999.90;;;;;;;;;;5039525;28;20677;-78